Archival Weather

Wadi Al Dawasir

Wadi Al Dawasir, Saudi Arabia (OEWD)

Report from: Thursday, February 22, 2024 7:00 AM +03
Current time: Wednesday, April 24, 2024 9:46 PM +03

Current weather – Weather history – Daily summaries
Weather forecast

Temperature16.0°C (60.8°F)
Dew point-1.0°C (30.2°F)
Winds 16 kts (8.2 m/s, 18.4 mph) East-Southeast (110°)
Clouds Sky clear
Altimeter30.09 in.Hg (1019 mB)
Relative humidity31 %
Density altitude14 ft. (4 m)
Remarks Ceiling and visibility OK
Flight conditions Visual Meteorological Conditions
Raw dataOEWD 220400Z 11016KT CAVOK 16/M01 Q1019
An error has occurred. This application may no longer respond until reloaded. Reload 🗙